Time;durP1;ratioP1;P1;durP2;ratioP2;P2;SDS_P1;SDS_P2;PMS_P1;PMS_P2;Temp;Humidity;BMP_temperature;BMP_pressure;BME280_temperature;BME280_humidity;BME280_pressure;Samples;Min_cycle;Max_cycle;Signal;HPM_P1;HPM_P2
2022/03/04 00:00:26;;;;;;;24.50;11.23;;;2.10;99.90;;;;;;5106384;28;20044;-70
2022/03/04 00:02:52;;;;;;;21.67;10.85;;;2.00;99.90;;;;;;5106370;28;20113;-70
2022/03/04 00:05:18;;;;;;;24.27;11.43;;;2.00;99.90;;;;;;5102321;28;20554;-71
2022/03/04 00:07:43;;;;;;;22.92;12.23;;;2.10;99.90;;;;;;5082425;28;20044;-70
2022/03/04 00:10:09;;;;;;;20.15;12.50;;;2.00;99.90;;;;;;5103472;28;20044;-70
2022/03/04 00:12:35;;;;;;;23.63;12.05;;;1.90;99.90;;;;;;5104031;28;20634;-70
2022/03/04 00:15:01;;;;;;;23.80;12.73;;;1.70;99.90;;;;;;5105103;28;20048;-70
2022/03/04 00:17:27;;;;;;;22.77;12.18;;;1.90;99.90;;;;;;5101049;28;20102;-70
2022/03/04 00:19:52;;;;;;;24.60;10.38;;;1.80;99.90;;;;;;5098792;28;20048;-70
2022/03/04 00:22:18;;;;;;;19.92;10.82;;;1.80;99.90;;;;;;5075595;28;20058;-70
2022/03/04 00:24:45;;;;;;;20.63;11.77;;;1.60;99.90;;;;;;5075149;28;20481;-70
2022/03/04 00:27:10;;;;;;;20.30;11.40;;;1.80;99.90;;;;;;5107091;28;20044;-70
2022/03/04 00:29:36;;;;;;;22.42;11.30;;;1.60;99.90;;;;;;5105465;28;20108;-70
2022/03/04 00:32:02;;;;;;;21.95;10.63;;;1.60;99.90;;;;;;5105221;28;20139;-70
2022/03/04 00:34:29;;;;;;;21.98;12.23;;;1.60;99.90;;;;;;5098154;28;20072;-70
2022/03/04 00:36:55;;;;;;;22.95;11.10;;;1.40;99.90;;;;;;5092185;28;20523;-70
2022/03/04 00:39:21;;;;;;;21.75;11.55;;;1.50;99.90;;;;;;5099161;28;20034;-70
2022/03/04 00:41:46;;;;;;;19.25;11.05;;;1.40;99.90;;;;;;5096023;28;20065;-70
2022/03/04 00:44:12;;;;;;;22.08;11.73;;;1.40;99.90;;;;;;5100337;28;20174;-70
2022/03/04 00:46:38;;;;;;;26.30;12.77;;;1.40;99.90;;;;;;5102279;28;20051;-70
2022/03/04 00:49:04;;;;;;;22.55;12.15;;;1.40;99.90;;;;;;5106888;28;20052;-70
2022/03/04 00:51:30;;;;;;;22.70;12.18;;;1.30;99.90;;;;;;5105098;28;20042;-70
2022/03/04 00:53:56;;;;;;;20.52;11.35;;;1.40;99.90;;;;;;5092744;28;20079;-70
2022/03/04 00:56:21;;;;;;;22.48;10.93;;;1.20;99.90;;;;;;5090858;28;20041;-70
2022/03/04 00:58:47;;;;;;;21.50;12.18;;;1.20;99.90;;;;;;5105657;28;20040;-70
2022/03/04 01:01:13;;;;;;;23.20;12.73;;;1.30;99.90;;;;;;5103728;28;20086;-70
2022/03/04 01:03:39;;;;;;;25.70;12.95;;;1.10;99.90;;;;;;5099994;28;20036;-70
2022/03/04 01:06:06;;;;;;;23.27;12.45;;;1.10;99.90;;;;;;5103968;28;20048;-70
2022/03/04 01:08:32;;;;;;;21.88;13.02;;;0.90;99.90;;;;;;5105844;28;20048;-70
2022/03/04 01:10:59;;;;;;;22.02;11.93;;;0.80;99.90;;;;;;5082660;28;20119;-70
2022/03/04 01:13:25;;;;;;;22.35;12.85;;;0.90;99.90;;;;;;5091690;28;20055;-70
2022/03/04 01:15:51;;;;;;;24.00;12.60;;;0.80;99.90;;;;;;5095810;28;20043;-70
2022/03/04 01:18:17;;;;;;;20.98;12.23;;;0.90;99.90;;;;;;5081179;28;20448;-70
2022/03/04 01:20:43;;;;;;;21.42;12.07;;;0.60;99.90;;;;;;5101632;28;20095;-70
2022/03/04 01:23:09;;;;;;;23.98;12.70;;;0.60;99.90;;;;;;5101502;28;20079;-70
2022/03/04 01:25:35;;;;;;;22.73;12.23;;;0.50;99.90;;;;;;5103423;28;20101;-70
2022/03/04 01:28:01;;;;;;;23.38;12.27;;;0.50;99.90;;;;;;5101412;28;20040;-70
2022/03/04 01:30:27;;;;;;;25.08;13.82;;;0.50;99.90;;;;;;5103355;28;20052;-70
2022/03/04 01:32:53;;;;;;;21.05;12.52;;;0.50;99.90;;;;;;5078596;28;20046;-70
2022/03/04 01:35:19;;;;;;;22.25;12.48;;;0.40;99.90;;;;;;5098203;28;20066;-70
2022/03/04 01:37:44;;;;;;;22.00;13.13;;;0.30;99.90;;;;;;5097063;28;20395;-70
2022/03/04 01:40:11;;;;;;;21.98;12.43;;;0.40;99.90;;;;;;5103402;28;20040;-70
2022/03/04 01:42:38;;;;;;;22.35;11.95;;;0.50;99.90;;;;;;5104287;28;20051;-70
2022/03/04 01:45:06;;;;;;;23.50;12.70;;;0.30;99.90;;;;;;5103246;28;20050;-70
2022/03/04 01:47:33;;;;;;;24.42;13.18;;;0.40;99.90;;;;;;5103346;28;20044;-70
2022/03/04 01:49:59;;;;;;;22.33;13.20;;;0.40;99.90;;;;;;5104244;28;20071;-70
2022/03/04 01:52:25;;;;;;;24.25;12.73;;;0.30;99.90;;;;;;5103197;28;20044;-70
2022/03/04 01:54:50;;;;;;;25.85;14.10;;;0.30;99.90;;;;;;5099977;28;20043;-70
2022/03/04 01:57:16;;;;;;;24.33;12.45;;;0.10;99.90;;;;;;5103397;28;20040;-70
2022/03/04 01:59:42;;;;;;;25.52;13.75;;;0.10;99.90;;;;;;5097029;28;20045;-70
2022/03/04 02:02:10;;;;;;;24.63;12.57;;;0.20;99.90;;;;;;5099052;28;20118;-70
2022/03/04 02:04:36;;;;;;;25.95;13.70;;;0.20;99.90;;;;;;5099828;28;20052;-70
2022/03/04 02:07:02;;;;;;;27.48;13.57;;;0.40;99.90;;;;;;5097858;28;20051;-70
2022/03/04 02:09:28;;;;;;;25.05;12.77;;;0.30;99.90;;;;;;5103046;28;20051;-70
2022/03/04 02:11:53;;;;;;;23.65;13.25;;;0.30;99.90;;;;;;5099295;28;20044;-70
2022/03/04 02:14:20;;;;;;;26.73;15.32;;;0.20;99.90;;;;;;5102377;28;20047;-70
2022/03/04 02:16:48;;;;;;;24.52;13.32;;;0.30;99.90;;;;;;5089318;28;20048;-70
2022/03/04 02:19:15;;;;;;;25.98;13.88;;;0.10;99.90;;;;;;5096005;28;20059;-70
2022/03/04 02:22:01;;;;;;;25.40;13.20;;;0.10;99.90;;;;;;5102710;28;20119;-70
2022/03/04 02:24:29;;;;;;;26.45;14.23;;;0.00;99.90;;;;;;5091566;28;20055;-70
2022/03/04 02:26:57;;;;;;;25.42;13.98;;;0.10;99.90;;;;;;5098282;28;20040;-70
2022/03/04 02:29:24;;;;;;;29.30;14.52;;;0.20;99.90;;;;;;5103419;28;20097;-70
2022/03/04 02:31:50;;;;;;;28.33;14.73;;;0.40;99.90;;;;;;5103859;28;20056;-70
2022/03/04 02:34:17;;;;;;;30.17;14.52;;;0.30;99.90;;;;;;5098080;28;20086;-70
2022/03/04 02:36:43;;;;;;;31.98;14.85;;;0.30;99.90;;;;;;5096259;28;20041;-70
2022/03/04 02:39:10;;;;;;;31.75;15.50;;;0.30;99.90;;;;;;5095911;28;20455;-70
2022/03/04 02:41:36;;;;;;;30.30;15.25;;;0.20;99.90;;;;;;5103310;28;20063;-70
2022/03/04 02:44:04;;;;;;;28.98;14.27;;;0.10;99.90;;;;;;5104062;28;20044;-70
2022/03/04 02:46:29;;;;;;;28.25;15.38;;;-0.20;99.90;;;;;;5093604;28;20075;-70
2022/03/04 02:48:55;;;;;;;30.88;14.90;;;-0.10;99.90;;;;;;5096306;28;20059;-70
2022/03/04 02:51:21;;;;;;;32.65;15.35;;;-0.30;99.90;;;;;;5090614;28;20055;-70
2022/03/04 02:53:47;;;;;;;30.35;14.32;;;-0.20;99.90;;;;;;5103650;28;20088;-70
2022/03/04 02:56:13;;;;;;;27.67;14.63;;;-0.10;99.90;;;;;;5096995;28;20059;-70
2022/03/04 02:58:39;;;;;;;32.38;15.43;;;-0.40;99.90;;;;;;5103613;28;20039;-70
2022/03/04 03:01:04;;;;;;;36.88;17.10;;;-0.30;99.90;;;;;;5097240;28;20061;-70
2022/03/04 03:03:31;;;;;;;36.03;17.83;;;-0.10;99.90;;;;;;5104404;28;20086;-70
2022/03/04 03:05:56;;;;;;;38.42;17.55;;;-0.30;99.90;;;;;;5100762;28;20385;-70
2022/03/04 03:08:22;;;;;;;38.58;17.35;;;-0.10;99.90;;;;;;5104464;28;20088;-70
2022/03/04 03:10:48;;;;;;;39.67;18.73;;;-0.10;99.90;;;;;;5102231;28;20148;-70
2022/03/04 03:13:13;;;;;;;37.38;17.48;;;0.20;99.90;;;;;;5101852;28;20044;-70
2022/03/04 03:15:39;;;;;;;36.95;19.27;;;0.30;99.90;;;;;;5097893;28;20055;-70
2022/03/04 03:18:05;;;;;;;43.10;18.85;;;0.30;99.90;;;;;;5097283;28;20040;-70
2022/03/04 03:20:31;;;;;;;39.83;18.70;;;0.40;99.90;;;;;;5094615;28;20044;-70
2022/03/04 03:22:56;;;;;;;44.50;19.95;;;0.20;99.90;;;;;;5098369;28;20047;-70
2022/03/04 03:25:22;;;;;;;38.90;18.88;;;0.30;99.90;;;;;;5095222;28;20129;-70
2022/03/04 03:27:48;;;;;;;40.92;19.05;;;0.40;99.90;;;;;;5072279;28;20052;-70
2022/03/04 03:30:13;;;;;;;41.60;20.17;;;0.20;99.90;;;;;;5104042;28;20032;-70
2022/03/04 03:32:39;;;;;;;41.60;20.77;;;0.30;99.90;;;;;;5102841;28;20055;-70
2022/03/04 03:35:08;;;;;;;41.15;19.33;;;0.50;99.90;;;;;;5099563;28;20161;-70
2022/03/04 03:37:37;;;;;;;39.47;19.50;;;0.50;99.90;;;;;;5101804;28;20051;-70
2022/03/04 03:40:09;;;;;;;41.28;19.77;;;0.30;99.90;;;;;;5103514;28;20047;-70
2022/03/04 03:42:35;;;;;;;40.80;20.33;;;0.30;99.90;;;;;;5103307;28;20046;-70
2022/03/04 03:45:03;;;;;;;38.15;20.20;;;0.50;99.90;;;;;;5104429;28;20040;-70
2022/03/04 03:47:29;;;;;;;42.53;20.95;;;0.60;99.90;;;;;;5103525;28;20135;-70
2022/03/04 03:49:55;;;;;;;44.83;21.45;;;0.30;99.90;;;;;;5100991;28;20369;-70
2022/03/04 03:52:21;;;;;;;43.15;21.40;;;0.30;99.90;;;;;;5101709;28;20084;-70
2022/03/04 03:54:46;;;;;;;43.47;21.50;;;0.40;99.90;;;;;;5094667;28;20051;-70
2022/03/04 03:57:12;;;;;;;42.70;21.38;;;0.50;99.90;;;;;;5104117;28;20515;-70
2022/03/04 03:59:38;;;;;;;40.35;21.10;;;0.30;99.90;;;;;;5081601;28;20083;-70
2022/03/04 04:02:04;;;;;;;40.17;21.25;;;0.50;99.90;;;;;;5102592;28;20048;-70
2022/03/04 04:04:34;;;;;;;41.13;20.70;;;0.40;99.90;;;;;;5106177;28;20035;-70
2022/03/04 04:07:07;;;;;;;42.35;22.77;;;0.30;99.90;;;;;;5107231;28;20040;-70
2022/03/04 04:09:34;;;;;;;42.92;22.48;;;0.20;99.90;;;;;;5096712;28;20052;-70
2022/03/04 04:11:59;;;;;;;43.75;21.42;;;0.50;99.90;;;;;;5097549;28;20067;-70
2022/03/04 04:14:26;;;;;;;42.88;20.88;;;0.40;99.90;;;;;;5100588;28;20054;-70
2022/03/04 04:16:52;;;;;;;44.47;21.48;;;0.40;99.90;;;;;;5105929;28;20040;-70
2022/03/04 04:19:18;;;;;;;49.40;22.85;;;0.10;99.90;;;;;;5085620;28;20051;-70
2022/03/04 04:21:44;;;;;;;47.03;22.05;;;0.30;99.90;;;;;;5101147;28;20052;-70
2022/03/04 04:24:10;;;;;;;47.72;23.75;;;0.20;99.90;;;;;;5099205;28;20065;-71
2022/03/04 04:26:36;;;;;;;47.00;22.15;;;0.40;99.90;;;;;;5105757;28;20052;-70
2022/03/04 04:29:03;;;;;;;46.42;23.00;;;0.50;99.90;;;;;;5105577;28;20086;-70
2022/03/04 04:31:30;;;;;;;50.40;24.05;;;0.40;99.90;;;;;;5104030;28;20066;-70
2022/03/04 04:33:55;;;;;;;46.05;22.85;;;0.50;99.90;;;;;;5105093;28;20056;-70
2022/03/04 04:36:21;;;;;;;50.65;24.27;;;0.50;99.90;;;;;;5104538;28;20047;-70
2022/03/04 04:38:47;;;;;;;44.97;22.63;;;0.30;99.90;;;;;;5100306;28;20055;-70
2022/03/04 04:41:13;;;;;;;44.80;22.35;;;0.60;99.90;;;;;;5098849;28;20112;-70
2022/03/04 04:43:38;;;;;;;53.22;24.85;;;0.50;99.90;;;;;;5106196;28;20400;-70
2022/03/04 04:46:05;;;;;;;44.15;22.08;;;0.60;99.90;;;;;;5103940;28;20044;-70
2022/03/04 04:48:31;;;;;;;45.70;22.02;;;0.30;99.90;;;;;;5092174;28;20048;-70
2022/03/04 04:50:59;;;;;;;45.17;22.27;;;0.30;99.90;;;;;;5104880;28;20100;-70
2022/03/04 04:53:26;;;;;;;47.72;22.70;;;0.60;99.90;;;;;;5104135;28;20057;-70
2022/03/04 04:55:52;;;;;;;48.58;24.35;;;0.40;99.90;;;;;;5105097;28;20048;-70
2022/03/04 04:58:18;;;;;;;43.13;20.58;;;0.40;99.90;;;;;;5104281;28;20070;-70
2022/03/04 05:00:45;;;;;;;43.25;21.30;;;0.40;99.90;;;;;;5105315;28;20063;-70
2022/03/04 05:03:11;;;;;;;45.13;21.55;;;0.70;99.90;;;;;;5070751;28;20044;-70
2022/03/04 05:05:37;;;;;;;41.20;21.45;;;0.60;99.90;;;;;;5094941;28;20052;-70
2022/03/04 05:08:03;;;;;;;41.88;22.17;;;0.50;99.90;;;;;;5103140;28;20040;-70
2022/03/04 05:10:29;;;;;;;42.58;21.27;;;0.50;99.90;;;;;;5098862;28;20104;-70
2022/03/04 05:12:55;;;;;;;40.22;19.50;;;0.60;99.90;;;;;;5102094;28;20062;-70
2022/03/04 05:15:20;;;;;;;40.03;20.23;;;0.40;99.90;;;;;;5103477;28;20044;-70
2022/03/04 05:17:50;;;;;;;41.83;21.08;;;0.40;99.90;;;;;;5094292;28;20056;-70
2022/03/04 05:20:17;;;;;;;41.10;21.15;;;0.30;99.90;;;;;;5104657;28;20075;-70
2022/03/04 05:22:43;;;;;;;43.40;21.08;;;0.50;99.90;;;;;;5105218;28;20044;-70
2022/03/04 05:25:09;;;;;;;39.75;20.05;;;0.50;99.90;;;;;;5099923;28;20098;-70
2022/03/04 05:27:35;;;;;;;43.08;21.42;;;0.40;99.90;;;;;;5091559;28;20059;-70
2022/03/04 05:30:00;;;;;;;42.10;20.30;;;0.50;99.90;;;;;;5104693;28;20047;-70
2022/03/04 05:32:27;;;;;;;39.25;20.30;;;0.40;99.90;;;;;;5103201;28;20074;-70
2022/03/04 05:34:53;;;;;;;43.97;21.27;;;0.70;99.90;;;;;;5104716;28;20118;-70
2022/03/04 05:37:18;;;;;;;42.65;21.42;;;0.50;99.90;;;;;;5102474;28;20043;-70
2022/03/04 05:39:44;;;;;;;41.28;21.42;;;0.40;99.90;;;;;;5104020;28;20087;-70
2022/03/04 05:42:10;;;;;;;43.58;21.83;;;0.40;99.90;;;;;;5086369;28;20046;-70
2022/03/04 05:44:35;;;;;;;45.70;21.88;;;0.60;99.90;;;;;;5100746;28;20040;-70
2022/03/04 05:47:01;;;;;;;45.95;22.88;;;0.50;99.90;;;;;;5091507;28;20036;-70
2022/03/04 05:49:27;;;;;;;44.08;21.95;;;0.50;99.90;;;;;;5079875;28;20066;-70
2022/03/04 05:51:53;;;;;;;42.63;21.45;;;0.40;99.90;;;;;;5103213;28;20062;-70
2022/03/04 05:54:19;;;;;;;41.55;20.15;;;0.70;99.90;;;;;;5098694;28;20040;-70
2022/03/04 05:56:45;;;;;;;46.63;21.85;;;0.80;99.90;;;;;;5103421;28;20068;-70
2022/03/04 05:59:11;;;;;;;47.33;23.27;;;0.50;99.90;;;;;;5103208;28;20043;-70
2022/03/04 06:01:37;;;;;;;47.78;23.60;;;0.60;99.90;;;;;;5103204;28;20518;-70
2022/03/04 06:04:03;;;;;;;51.45;22.45;;;0.60;99.90;;;;;;5099487;28;20059;-70
2022/03/04 06:06:28;;;;;;;50.80;24.27;;;0.50;99.90;;;;;;5052843;28;20089;-70
2022/03/04 06:08:54;;;;;;;44.55;21.58;;;0.40;99.90;;;;;;5104544;28;20040;-71
2022/03/04 06:11:20;;;;;;;45.58;21.80;;;0.50;99.90;;;;;;5088963;28;20129;-70
2022/03/04 06:13:46;;;;;;;45.50;22.73;;;0.40;99.90;;;;;;5072953;28;20044;-78
2022/03/04 06:16:12;;;;;;;49.75;22.65;;;0.50;99.90;;;;;;5091808;28;20066;-71
2022/03/04 06:18:37;;;;;;;45.92;23.52;;;0.20;99.90;;;;;;5096664;28;20032;-72
2022/03/04 06:21:03;;;;;;;45.70;21.85;;;0.40;99.90;;;;;;5097241;28;20082;-71
2022/03/04 06:23:30;;;;;;;43.33;20.80;;;0.30;99.90;;;;;;5092245;28;20078;-71
2022/03/04 06:25:58;;;;;;;43.10;21.77;;;0.60;99.90;;;;;;5089901;28;20105;-71
2022/03/04 06:28:25;;;;;;;43.63;22.83;;;0.60;99.90;;;;;;5091164;28;20086;-71
2022/03/04 06:30:51;;;;;;;43.92;22.17;;;0.70;99.90;;;;;;5081497;28;20069;-71
2022/03/04 06:33:30;;;;;;;43.63;21.67;;;0.60;99.90;;;;;;5093652;28;20056;-71
2022/03/04 06:35:59;;;;;;;45.67;22.52;;;0.50;99.90;;;;;;5086146;28;20078;-70
2022/03/04 06:38:24;;;;;;;42.33;22.17;;;0.90;99.90;;;;;;5094559;28;20104;-70
2022/03/04 06:40:51;;;;;;;42.42;22.35;;;0.70;99.90;;;;;;5088493;28;20048;-70
2022/03/04 06:43:18;;;;;;;45.63;22.60;;;0.60;99.90;;;;;;5095189;28;20075;-70
2022/03/04 06:45:45;;;;;;;38.60;20.70;;;0.60;99.90;;;;;;5082720;28;20098;-70
2022/03/04 06:48:13;;;;;;;40.10;20.70;;;0.70;99.90;;;;;;5096023;28;20162;-70
2022/03/04 06:50:38;;;;;;;37.25;19.90;;;0.60;99.90;;;;;;5082094;28;20084;-70
2022/03/04 06:53:04;;;;;;;39.13;20.17;;;0.60;99.90;;;;;;5064977;28;20075;-71
2022/03/04 06:55:31;;;;;;;38.83;19.63;;;0.90;99.90;;;;;;5062965;28;20048;-70
2022/03/04 06:57:57;;;;;;;38.72;19.63;;;0.70;99.90;;;;;;5083344;28;20036;-70
2022/03/04 07:00:24;;;;;;;42.03;21.63;;;0.80;99.90;;;;;;5084481;28;20199;-70
2022/03/04 07:02:51;;;;;;;38.13;19.63;;;0.80;99.90;;;;;;5073047;28;20731;-70
2022/03/04 07:05:17;;;;;;;41.05;22.02;;;0.70;99.90;;;;;;5062634;28;20052;-70
2022/03/04 07:07:42;;;;;;;37.70;20.17;;;0.50;99.90;;;;;;5077677;28;20048;-71
2022/03/04 07:10:08;;;;;;;43.05;21.08;;;0.50;99.90;;;;;;5066210;28;20078;-71
2022/03/04 07:12:35;;;;;;;38.45;20.40;;;0.80;99.90;;;;;;5092669;28;20046;-71
2022/03/04 07:15:01;;;;;;;40.05;20.67;;;0.70;99.90;;;;;;5059416;28;20129;-71
2022/03/04 07:17:27;;;;;;;53.17;29.52;;;0.90;99.90;;;;;;5089377;28;20052;-70
2022/03/04 07:19:52;;;;;;;38.97;20.52;;;0.90;99.90;;;;;;5085915;28;20036;-71
2022/03/04 07:22:18;;;;;;;42.05;22.45;;;0.90;99.90;;;;;;5079021;28;20105;-70
2022/03/04 07:24:44;;;;;;;41.53;21.67;;;0.70;99.90;;;;;;5075966;28;20055;-67
2022/03/04 07:27:09;;;;;;;47.22;26.30;;;0.50;99.90;;;;;;5083001;28;20040;-70
2022/03/04 07:29:35;;;;;;;42.30;23.23;;;0.50;99.90;;;;;;5093484;28;20064;-70
2022/03/04 07:32:00;;;;;;;44.22;23.05;;;0.60;99.90;;;;;;5095981;28;20044;-69
2022/03/04 07:34:26;;;;;;;44.03;22.38;;;0.40;99.90;;;;;;5095001;28;20070;-70
2022/03/04 07:36:52;;;;;;;45.60;23.90;;;0.60;99.90;;;;;;5087575;28;20047;-69
2022/03/04 07:39:19;;;;;;;45.55;23.58;;;0.70;99.90;;;;;;5099454;28;20040;-70
2022/03/04 07:41:48;;;;;;;45.35;22.90;;;0.60;99.90;;;;;;5090428;28;20059;-70
2022/03/04 07:44:15;;;;;;;46.40;23.50;;;0.80;99.90;;;;;;5089648;28;20048;-70
2022/03/04 07:46:41;;;;;;;46.60;22.33;;;0.70;99.90;;;;;;5077657;28;20536;-70
2022/03/04 07:49:07;;;;;;;45.80;22.42;;;0.60;99.90;;;;;;5091036;28;20044;-71
2022/03/04 07:51:33;;;;;;;45.05;23.40;;;0.90;99.90;;;;;;5078646;28;20132;-76
2022/03/04 07:53:59;;;;;;;48.17;24.52;;;1.00;99.90;;;;;;5073381;28;20051;-73
2022/03/04 07:56:25;;;;;;;38.90;21.60;;;1.00;99.90;;;;;;5075855;28;20052;-70
2022/03/04 07:58:51;;;;;;;43.33;22.38;;;1.00;99.90;;;;;;5090195;28;20047;-68
2022/03/04 08:01:17;;;;;;;45.47;22.70;;;1.10;99.90;;;;;;5068336;28;20056;-68
2022/03/04 08:03:43;;;;;;;45.17;23.90;;;1.20;99.90;;;;;;5094084;28;20076;-68
2022/03/04 08:06:09;;;;;;;44.17;23.85;;;1.10;99.90;;;;;;5081357;28;20058;-68
2022/03/04 08:08:35;;;;;;;41.55;23.52;;;1.10;99.90;;;;;;5093000;28;20048;-68
2022/03/04 08:11:01;;;;;;;39.58;23.23;;;1.20;99.90;;;;;;5091915;28;20047;-79
2022/03/04 08:13:27;;;;;;;49.08;27.73;;;1.30;99.90;;;;;;5085489;28;20465;-66
2022/03/04 08:15:53;;;;;;;45.63;24.95;;;1.10;99.90;;;;;;5080484;28;20113;-70
2022/03/04 08:18:18;;;;;;;43.65;23.83;;;1.10;99.90;;;;;;5095846;28;20054;-69
2022/03/04 08:20:44;;;;;;;38.35;21.60;;;1.30;99.90;;;;;;5090478;28;20054;-70
2022/03/04 08:23:11;;;;;;;45.42;23.73;;;1.50;99.90;;;;;;5090509;28;20070;-70
2022/03/04 08:25:41;;;;;;;48.08;26.77;;;1.50;99.90;;;;;;5091012;28;20104;-70
2022/03/04 08:28:07;;;;;;;46.27;25.33;;;1.40;99.90;;;;;;5079584;28;20067;-70
2022/03/04 08:30:33;;;;;;;45.55;23.90;;;1.20;99.90;;;;;;5081466;28;20297;-69
2022/03/04 08:41:42;;;;;;;41.25;22.25;;;1.70;99.90;;;;;;5730166;23;20319;-68
2022/03/04 08:44:08;;;;;;;39.45;22.13;;;1.70;99.90;;;;;;4957451;28;20058;-75
2022/03/04 08:46:36;;;;;;;41.72;21.35;;;1.50;99.90;;;;;;4962363;28;20085;-76
2022/03/04 08:49:03;;;;;;;36.92;21.05;;;1.70;99.90;;;;;;4943097;28;20145;-77
2022/03/04 08:51:29;;;;;;;38.00;20.23;;;1.70;99.90;;;;;;4967165;28;20624;-72
2022/03/04 08:53:55;;;;;;;35.20;18.45;;;2.00;99.90;;;;;;4976319;28;20038;-73
2022/03/04 08:56:21;;;;;;;36.92;18.88;;;2.00;99.90;;;;;;4968748;28;20085;-74
2022/03/04 08:58:48;;;;;;;34.00;18.85;;;2.00;99.90;;;;;;4975425;28;20295;-73
2022/03/04 09:01:14;;;;;;;33.47;19.38;;;2.10;99.90;;;;;;4968979;28;20123;-75
2022/03/04 09:03:40;;;;;;;33.03;18.42;;;2.30;99.90;;;;;;4975952;28;20061;-75
2022/03/04 09:06:06;;;;;;;37.03;18.60;;;2.20;99.90;;;;;;4959885;28;20945;-74
2022/03/04 09:08:33;;;;;;;44.53;22.58;;;2.20;99.90;;;;;;4974533;28;20047;-74
2022/03/04 09:10:59;;;;;;;32.33;18.65;;;2.10;99.90;;;;;;4952589;28;20109;-76
2022/03/04 09:13:25;;;;;;;34.05;18.00;;;2.10;99.90;;;;;;4975701;28;20101;-74
2022/03/04 09:15:51;;;;;;;36.00;18.55;;;2.00;99.90;;;;;;4977484;28;20054;-74
2022/03/04 09:18:17;;;;;;;32.53;18.52;;;1.90;99.90;;;;;;4974853;28;20069;-73
2022/03/04 09:20:43;;;;;;;36.60;18.55;;;2.10;99.90;;;;;;4968963;28;20054;-73
2022/03/04 09:23:09;;;;;;;36.22;19.42;;;2.20;99.90;;;;;;4976228;28;20399;-76
2022/03/04 09:25:34;;;;;;;34.60;19.30;;;2.20;99.90;;;;;;4968663;28;20085;-75
2022/03/04 09:28:03;;;;;;;31.63;19.85;;;2.20;99.90;;;;;;4960406;28;20054;-76
2022/03/04 09:30:31;;;;;;;32.60;18.60;;;2.10;99.90;;;;;;4968114;28;20081;-74
2022/03/04 09:32:57;;;;;;;34.90;19.52;;;2.10;99.90;;;;;;4975303;28;20394;-73
2022/03/04 09:35:23;;;;;;;35.53;19.10;;;2.20;99.90;;;;;;4968064;28;20061;-75
2022/03/04 09:37:49;;;;;;;31.77;18.42;;;2.30;99.90;;;;;;4943029;28;20058;-76
2022/03/04 09:40:15;;;;;;;33.25;17.30;;;2.40;99.90;;;;;;4951358;28;20050;-75
2022/03/04 09:42:41;;;;;;;28.20;17.63;;;2.30;99.90;;;;;;4973418;28;20059;-75
2022/03/04 09:45:07;;;;;;;29.85;17.83;;;2.50;99.90;;;;;;4936420;28;20370;-75
2022/03/04 09:47:34;;;;;;;32.30;18.55;;;2.50;99.90;;;;;;4975126;28;20058;-75
2022/03/04 09:50:02;;;;;;;30.80;18.90;;;2.50;99.90;;;;;;4974711;28;20550;-75
2022/03/04 09:52:28;;;;;;;34.97;20.58;;;2.60;99.90;;;;;;4974327;28;20054;-75
2022/03/04 09:54:54;;;;;;;31.10;18.17;;;2.70;99.90;;;;;;4966313;28;20252;-75
2022/03/04 09:57:21;;;;;;;29.55;17.42;;;2.80;99.90;;;;;;4942421;28;20126;-75
2022/03/04 09:59:47;;;;;;;31.38;17.85;;;3.10;99.90;;;;;;4950089;28;20055;-75
2022/03/04 10:02:13;;;;;;;31.08;16.63;;;3.10;99.90;;;;;;4988840;28;20638;-75
2022/03/04 10:04:39;;;;;;;31.10;18.63;;;3.40;99.90;;;;;;4962266;28;20096;-75
2022/03/04 10:07:16;;;;;;;32.03;17.83;;;3.30;99.90;;;;;;4979445;28;20111;-75
2022/03/04 10:09:47;;;;;;;28.92;17.58;;;3.30;99.90;;;;;;4969642;28;20047;-76
2022/03/04 10:12:16;;;;;;;32.03;19.08;;;3.50;99.90;;;;;;4974352;28;20129;-76
2022/03/04 10:15:06;;;;;;;30.58;17.45;;;3.60;99.90;;;;;;4966195;28;20042;-75
2022/03/04 10:17:33;;;;;;;;;;;3.60;99.90;;;;;;4975257;28;20069;-75
2022/03/04 10:20:01;;;;;;;32.17;17.02;;;3.70;99.90;;;;;;4967824;28;20048;-75
2022/03/04 10:22:42;;;;;;;33.30;18.85;;;3.80;99.90;;;;;;4975029;28;20050;-69
2022/03/04 10:25:22;;;;;;;32.70;18.65;;;4.10;99.90;;;;;;4971635;28;20445;-74
2022/03/04 10:27:48;;;;;;;35.42;20.67;;;4.20;99.90;;;;;;4971871;28;20062;-73
2022/03/04 10:30:16;;;;;;;36.42;18.35;;;4.30;99.90;;;;;;4968386;28;20397;-72
2022/03/04 10:32:42;;;;;;;35.17;20.27;;;4.40;99.90;;;;;;4942538;28;20050;-73
2022/03/04 10:35:10;;;;;;;30.85;18.13;;;4.30;99.90;;;;;;4970200;28;20074;-73
2022/03/04 10:37:52;;;;;;;32.80;18.40;;;4.40;99.90;;;;;;4977765;28;20047;-73
2022/03/04 10:40:22;;;;;;;34.78;18.35;;;4.50;99.90;;;;;;4972001;28;20054;-72
2022/03/04 10:42:51;;;;;;;33.40;20.90;;;4.30;99.90;;;;;;4974482;28;20116;-72
2022/03/04 10:45:44;;;;;;;33.80;20.17;;;4.40;99.90;;;;;;4972378;28;20061;-73
2022/03/04 10:48:15;;;;;;;28.15;17.25;;;4.40;99.90;;;;;;4973811;28;20051;-73
2022/03/04 10:50:47;;;;;;;31.27;17.58;;;4.50;99.90;;;;;;4968800;28;20071;-73
2022/03/04 10:53:24;;;;;;;33.72;20.50;;;4.60;99.90;;;;;;4985276;28;20114;-72
2022/03/04 10:55:51;;;;;;;30.20;18.00;;;4.70;99.90;;;;;;4972163;28;20058;-72
2022/03/04 10:58:23;;;;;;;26.23;16.50;;;4.70;99.90;;;;;;4977278;28;20183;-70
2022/03/04 11:00:49;;;;;;;33.03;19.10;;;4.70;99.90;;;;;;4969090;28;20121;-74
2022/03/04 11:03:23;;;;;;;29.92;18.35;;;4.80;99.90;;;;;;4979538;28;20090;-74
2022/03/04 11:05:52;;;;;;;28.48;16.92;;;4.80;99.90;;;;;;4959236;28;20054;-71
2022/03/04 11:08:20;;;;;;;29.95;18.08;;;5.00;99.90;;;;;;4985652;28;20411;-73
2022/03/04 11:10:46;;;;;;;26.85;17.10;;;5.10;99.90;;;;;;4974627;28;20062;-76
2022/03/04 11:13:13;;;;;;;28.65;16.48;;;5.20;99.90;;;;;;4985643;28;20039;-70
2022/03/04 11:15:40;;;;;;;29.95;17.75;;;5.40;99.90;;;;;;4982583;28;20158;-71
2022/03/04 11:18:12;;;;;;;27.42;16.92;;;5.50;99.90;;;;;;4981725;28;20723;-70
2022/03/04 11:20:42;;;;;;;29.73;17.58;;;5.50;99.90;;;;;;4976770;28;20441;-70
2022/03/04 11:23:09;;;;;;;31.40;16.92;;;5.60;99.90;;;;;;4986112;28;20132;-70
2022/03/04 11:25:37;;;;;;;30.55;17.52;;;5.60;99.90;;;;;;4977357;28;20046;-70
2022/03/04 11:28:09;;;;;;;28.92;18.55;;;5.70;99.90;;;;;;4982692;28;20051;-69
2022/03/04 11:30:42;;;;;;;26.70;17.02;;;5.70;99.90;;;;;;4980262;28;20097;-71
2022/03/04 11:33:15;;;;;;;28.75;16.85;;;5.80;99.90;;;;;;4973588;28;20071;-70
2022/03/04 11:35:41;;;;;;;28.70;17.33;;;5.90;99.90;;;;;;4975901;28;20054;-73
2022/03/04 11:38:10;;;;;;;30.88;16.85;;;6.00;99.90;;;;;;4977005;28;20348;-71
2022/03/04 11:40:38;;;;;;;23.87;15.87;;;6.10;99.90;;;;;;4972260;28;20069;-71
2022/03/04 11:43:09;;;;;;;26.15;15.95;;;6.30;99.90;;;;;;4975492;28;20716;-71
2022/03/04 11:45:36;;;;;;;25.80;14.73;;;6.40;99.90;;;;;;4965133;28;20716;-69
2022/03/04 11:48:11;;;;;;;28.40;16.05;;;6.50;99.90;;;;;;4959651;28;20326;-72
2022/03/04 11:50:42;;;;;;;24.15;13.38;;;6.60;99.90;;;;;;4970805;28;20077;-72
2022/03/04 11:53:22;;;;;;;21.45;13.77;;;6.80;99.90;;;;;;4974970;28;20254;-72
2022/03/04 11:56:14;;;;;;;20.90;13.38;;;6.90;99.90;;;;;;4976102;28;20592;-72
2022/03/04 11:59:18;;;;;;;21.33;12.18;;;7.00;99.90;;;;;;4977300;28;20265;-72
2022/03/04 12:01:45;;;;;;;20.95;13.90;;;7.20;99.90;;;;;;4977164;28;20069;-72
2022/03/04 12:04:18;;;;;;;18.70;13.00;;;7.30;99.90;;;;;;4979258;28;20050;-72
2022/03/04 12:07:08;;;;;;;21.50;12.60;;;7.40;99.90;;;;;;4942665;28;20114;-72
2022/03/04 12:09:34;;;;;;;21.35;12.85;;;7.60;99.90;;;;;;4977951;28;20042;-72
2022/03/04 12:12:29;;;;;;;23.35;13.15;;;7.60;99.90;;;;;;4956645;28;20624;-71
2022/03/04 12:15:17;;;;;;;26.73;13.75;;;7.80;99.90;;;;;;4981231;28;20059;-72
2022/03/04 12:18:04;;;;;;;46.33;21.38;;;8.00;99.90;;;;;;4966998;28;20043;-71
2022/03/04 12:20:39;;;;;;;27.85;14.82;;;8.10;99.90;;;;;;4971887;28;20104;-72
2022/03/04 12:23:16;;;;;;;28.80;15.32;;;8.20;99.90;;;;;;4996157;28;20038;-72
2022/03/04 12:25:54;;;;;;;22.83;12.85;;;8.40;99.90;;;;;;4978102;28;20048;-72
2022/03/04 12:28:22;;;;;;;15.55;10.18;;;8.60;99.90;;;;;;4977808;28;20122;-75
2022/03/04 12:31:02;;;;;;;17.90;11.63;;;8.80;99.90;;;;;;4970929;28;20127;-75
2022/03/04 12:33:32;;;;;;;24.67;15.25;;;9.00;99.90;;;;;;4962153;28;20054;-73
2022/03/04 12:35:59;;;;;;;26.98;15.80;;;9.20;99.90;;;;;;4973013;28;20051;-72
2022/03/04 12:38:26;;;;;;;18.80;12.80;;;9.50;99.90;;;;;;4975410;28;20280;-73
2022/03/04 12:40:54;;;;;;;22.55;14.02;;;9.90;99.90;;;;;;4978145;28;20549;-73
2022/03/04 12:43:20;;;;;;;20.65;13.90;;;10.10;99.90;;;;;;4975846;28;20074;-73
2022/03/04 12:45:46;;;;;;;17.95;13.23;;;10.50;99.90;;;;;;4973062;28;20058;-73